Time;durP1;ratioP1;P1;durP2;ratioP2;P2;SDS_P1;SDS_P2;PMS_P1;PMS_P2;Temp;Humidity;BMP_temperature;BMP_pressure;BME280_temperature;BME280_humidity;BME280_pressure;Samples;Min_cycle;Max_cycle;Signal;HPM_P1;HPM_P2
2022/03/06 00:00:51;;;;;;;1.90;1.83;;;;;;;2.73;100.00;91917.34;4958945;28;20490;-79
2022/03/06 00:03:18;;;;;;;2.80;2.40;;;;;;;2.93;100.00;91955.06;4959681;28;20593;-79
2022/03/06 00:05:48;;;;;;;3.03;2.93;;;;;;;2.90;100.00;91952.66;4958995;28;20522;-79
2022/03/06 00:08:15;;;;;;;3.33;3.17;;;;;;;2.63;100.00;91909.28;4959024;28;20675;-79
2022/03/06 00:10:42;;;;;;;2.17;2.17;;;;;;;2.79;100.00;91942.97;4949932;28;20592;-79
2022/03/06 00:13:10;;;;;;;1.93;1.83;;;;;;;2.91;100.00;91946.84;4959093;28;20223;-79
2022/03/06 00:15:37;;;;;;;3.00;2.30;;;;;;;2.89;100.00;91943.53;4958341;28;20486;-79
2022/03/06 00:18:04;;;;;;;2.27;2.27;;;;;;;2.74;100.00;91923.97;4959062;28;20554;-78
2022/03/06 00:20:31;;;;;;;2.40;2.30;;;;;;;2.72;100.00;91923.19;4958607;28;20215;-78
2022/03/06 00:23:00;;;;;;;3.20;2.93;;;;;;;2.76;100.00;91923.06;4958333;28;20502;-79
2022/03/06 00:25:27;;;;;;;3.63;1.63;;;;;;;2.73;100.00;91925.66;4958665;28;20597;-79
2022/03/06 00:27:55;;;;;;;1.27;1.27;;;;;;;2.16;100.00;91864.75;4958528;28;20712;-78
2022/03/06 00:30:22;;;;;;;1.07;1.07;;;;;;;2.50;100.00;91947.81;4958659;28;20556;-77
2022/03/06 00:32:49;;;;;;;1.17;1.17;;;;;;;2.46;100.00;91939.59;4958261;28;20630;-77
2022/03/06 00:35:16;;;;;;;1.60;1.60;;;;;;;2.42;100.00;91939.72;4944681;28;20555;-77
2022/03/06 00:37:43;;;;;;;1.43;1.43;;;;;;;2.39;100.00;91928.13;4950372;28;20657;-77
2022/03/06 00:40:13;;;;;;;1.07;1.07;;;;;;;2.49;100.00;91926.25;4958902;28;20196;-77
2022/03/06 00:42:40;;;;;;;1.57;1.57;;;;;;;2.65;100.00;91934.97;4958730;28;20491;-77
2022/03/06 00:45:08;;;;;;;1.27;1.27;;;;;;;2.71;100.00;91927.34;4958292;28;20577;-77
2022/03/06 00:47:35;;;;;;;1.90;1.90;;;;;;;2.63;100.00;91910.97;4958366;28;20534;-77
2022/03/06 00:50:03;;;;;;;1.60;1.60;;;;;;;2.61;100.00;91913.47;4958423;28;20528;-76
2022/03/06 00:52:30;;;;;;;2.30;1.40;;;;;;;2.61;100.00;91917.66;4958710;28;20200;-76
2022/03/06 00:54:57;;;;;;;1.13;1.13;;;;;;;2.64;100.00;91910.09;4958171;28;20580;-76
2022/03/06 00:57:26;;;;;;;1.30;1.30;;;;;;;2.77;100.00;91923.88;4958703;28;20251;-77
2022/03/06 00:59:53;;;;;;;1.23;1.23;;;;;;;2.73;100.00;91910.69;4957079;28;20601;-76
2022/03/06 01:02:20;;;;;;;0.93;0.93;;;;;;;2.47;100.00;91893.06;4959436;28;20204;-76
2022/03/06 01:04:47;;;;;;;1.53;1.53;;;;;;;2.40;100.00;91906.53;4957611;28;20668;-77
2022/03/06 01:07:15;;;;;;;1.53;1.53;;;;;;;2.42;100.00;91917.28;4958464;28;20526;-76
2022/03/06 01:09:42;;;;;;;1.37;1.27;;;;;;;2.49;100.00;91916.25;4957911;28;20514;-76
2022/03/06 01:12:09;;;;;;;1.37;1.37;;;;;;;2.63;100.00;91916.78;4957884;28;20246;-76
2022/03/06 01:14:38;;;;;;;1.17;1.17;;;;;;;2.61;100.00;91908.50;4957918;28;20485;-76
2022/03/06 01:17:06;;;;;;;1.17;1.17;;;;;;;2.70;100.00;91909.97;4957670;28;20231;-76
2022/03/06 01:19:33;;;;;;;1.40;1.40;;;;;;;2.54;100.00;91897.03;4958039;28;20269;-75
2022/03/06 01:22:00;;;;;;;1.17;1.17;;;;;;;2.52;100.00;91902.94;4958397;28;20197;-76
2022/03/06 01:24:27;;;;;;;1.27;1.17;;;;;;;2.64;100.00;91910.94;4957689;28;20601;-75
2022/03/06 01:26:54;;;;;;;1.30;1.30;;;;;;;2.69;100.00;91910.81;4956915;28;20608;-75
2022/03/06 01:29:22;;;;;;;0.80;0.80;;;;;;;2.64;100.00;91892.66;4957179;28;20567;-75
2022/03/06 01:31:51;;;;;;;1.60;1.50;;;;;;;2.75;100.00;91896.53;4957677;28;20605;-76
2022/03/06 01:34:18;;;;;;;1.23;0.83;;;;;;;2.58;100.00;91895.31;4950909;28;20465;-76
2022/03/06 01:36:45;;;;;;;0.80;0.80;;;;;;;2.47;100.00;91890.59;4937704;28;20617;-76
2022/03/06 01:39:13;;;;;;;0.67;0.67;;;;;;;2.40;100.00;91892.41;4944481;28;20247;-76
2022/03/06 01:41:40;;;;;;;1.10;1.10;;;;;;;2.44;100.00;91900.59;4957000;28;20495;-77
2022/03/06 01:44:13;;;;;;;0.87;0.87;;;;;;;2.46;100.00;91907.22;4957846;28;20523;-76
2022/03/06 01:46:40;;;;;;;1.00;1.00;;;;;;;2.40;100.00;91899.06;4957544;28;20631;-77
2022/03/06 01:49:09;;;;;;;1.63;0.83;;;;;;;2.38;100.00;91890.78;4957494;28;20514;-77
2022/03/06 01:51:36;;;;;;;0.93;0.93;;;;;;;2.43;100.00;91889.81;4956811;28;20616;-77
2022/03/06 01:54:04;;;;;;;1.40;1.40;;;;;;;2.42;100.00;91897.34;4956773;28;20553;-77
2022/03/06 01:56:32;;;;;;;1.33;1.33;;;;;;;2.17;100.00;91879.66;4956953;28;20234;-77
2022/03/06 01:59:01;;;;;;;0.80;0.80;;;;;;;2.30;100.00;91888.50;4957154;28;20223;-77
2022/03/06 02:01:29;;;;;;;1.03;0.93;;;;;;;2.37;100.00;91892.47;4957367;28;20225;-77
2022/03/06 02:03:56;;;;;;;0.93;0.93;;;;;;;2.36;100.00;91893.34;4957011;28;20211;-78
2022/03/06 02:06:25;;;;;;;1.77;1.20;;;;;;;2.28;100.00;91895.19;4957969;28;20591;-78
2022/03/06 02:08:52;;;;;;;0.80;0.80;;;;;;;2.25;100.00;91890.28;4957109;28;20196;-77
2022/03/06 02:11:20;;;;;;;1.00;1.00;;;;;;;2.25;100.00;91879.50;4956113;28;20494;-77
2022/03/06 02:13:48;;;;;;;1.03;0.60;;;;;;;2.28;100.00;91887.69;4956666;28;20196;-77
2022/03/06 02:16:15;;;;;;;1.00;1.00;;;;;;;2.32;100.00;91883.44;4956895;28;20644;-77
2022/03/06 02:18:42;;;;;;;0.87;0.87;;;;;;;2.20;100.00;91863.84;4957200;28;20608;-78
2022/03/06 02:21:12;;;;;;;1.20;1.20;;;;;;;2.23;100.00;91877.03;4956164;28;20610;-76
2022/03/06 02:23:39;;;;;;;0.90;0.90;;;;;;;2.12;100.00;91873.97;4956971;28;20583;-76
2022/03/06 02:26:09;;;;;;;0.73;0.73;;;;;;;2.22;100.00;91887.03;4956826;28;20278;-77
2022/03/06 02:28:36;;;;;;;1.10;1.10;;;;;;;2.23;100.00;91879.53;4956265;28;20196;-76
2022/03/06 02:31:04;;;;;;;0.83;0.83;;;;;;;2.26;100.00;91868.66;4956100;28;20462;-76
2022/03/06 02:33:31;;;;;;;0.57;0.57;;;;;;;2.34;100.00;91885.06;4956560;28;20222;-77
2022/03/06 02:35:58;;;;;;;0.90;0.90;;;;;;;2.24;100.00;91867.88;4947730;28;20549;-76
2022/03/06 02:38:27;;;;;;;0.93;0.93;;;;;;;2.35;100.00;91891.69;4956221;28;20695;-76
2022/03/06 02:40:54;;;;;;;1.00;1.00;;;;;;;2.32;100.00;91880.97;4955776;28;20624;-76
2022/03/06 02:43:22;;;;;;;0.80;0.80;;;;;;;2.34;100.00;91885.06;4956551;28;20600;-76
2022/03/06 02:45:50;;;;;;;1.17;0.90;;;;;;;2.39;100.00;91894.91;4956430;28;20540;-77
2022/03/06 02:48:17;;;;;;;1.00;1.00;;;;;;;2.31;100.00;91887.63;4956439;28;20228;-76
2022/03/06 02:50:45;;;;;;;1.27;1.27;;;;;;;2.38;100.00;91888.28;4953844;28;20199;-76
2022/03/06 02:53:13;;;;;;;0.90;0.90;;;;;;;2.33;100.00;91890.91;4949628;28;20582;-76
2022/03/06 02:55:42;;;;;;;0.93;0.93;;;;;;;2.31;100.00;91894.31;4957229;28;20192;-76
2022/03/06 02:58:10;;;;;;;0.70;0.70;;;;;;;2.24;100.00;91893.63;4955991;28;20564;-76
2022/03/06 03:00:37;;;;;;;0.70;0.70;;;;;;;2.14;100.00;91873.94;4956041;28;20596;-76
2022/03/06 03:03:04;;;;;;;0.77;0.77;;;;;;;2.28;100.00;91885.22;4955686;28;20601;-76
2022/03/06 03:05:32;;;;;;;0.77;0.77;;;;;;;2.30;100.00;91887.69;4956636;28;20526;-76
2022/03/06 03:07:59;;;;;;;0.97;0.97;;;;;;;2.34;100.00;91899.19;4956267;28;20486;-75
2022/03/06 03:10:27;;;;;;;0.87;0.87;;;;;;;2.24;100.00;91888.63;4956413;28;20581;-76
2022/03/06 03:12:57;;;;;;;1.17;1.17;;;;;;;2.20;100.00;91884.56;4956291;28;20647;-75
2022/03/06 03:15:24;;;;;;;1.23;1.23;;;;;;;2.17;100.00;91891.28;4955901;28;20604;-75
2022/03/06 03:17:51;;;;;;;1.27;1.23;;;;;;;2.11;100.00;91896.41;4955959;28;20561;-75
2022/03/06 03:20:20;;;;;;;0.80;0.80;;;;;;;2.11;100.00;91896.41;4955677;28;20630;-75
2022/03/06 03:22:47;;;;;;;0.53;0.53;;;;;;;1.94;100.00;91870.22;4949721;28;20219;-75
2022/03/06 03:25:14;;;;;;;0.70;0.70;;;;;;;2.03;100.00;91902.38;4940144;28;20662;-74
2022/03/06 03:27:41;;;;;;;0.60;0.60;;;;;;;1.95;100.00;91893.47;4940427;28;20274;-74
2022/03/06 03:30:12;;;;;;;1.23;1.23;;;;;;;2.02;100.00;91900.78;4940104;28;20609;-75
2022/03/06 03:32:39;;;;;;;1.40;1.40;;;;;;;1.90;100.00;91898.53;4940362;28;20223;-75
2022/03/06 03:35:07;;;;;;;0.97;0.90;;;;;;;1.93;100.00;91903.44;4950851;28;20360;-74
2022/03/06 03:37:34;;;;;;;0.63;0.63;;;;;;;1.92;100.00;91905.97;4959243;28;20635;-75
2022/03/06 03:40:03;;;;;;;0.70;0.70;;;;;;;1.89;100.00;91901.88;4959434;28;20600;-74
2022/03/06 03:42:30;;;;;;;0.70;0.70;;;;;;;1.86;100.00;91908.63;4960164;28;20218;-76
2022/03/06 03:44:57;;;;;;;0.70;0.70;;;;;;;1.80;100.00;91922.00;4959834;28;20521;-74
2022/03/06 03:47:26;;;;;;;0.73;0.73;;;;;;;1.76;100.00;91909.66;4959624;28;20488;-75
2022/03/06 03:49:53;;;;;;;0.83;0.83;;;;;;;1.66;100.00;91909.84;4959408;28;20289;-76
2022/03/06 03:52:20;;;;;;;0.70;0.70;;;;;;;1.71;100.00;91909.75;4959465;28;20604;-76
2022/03/06 03:54:47;;;;;;;1.40;1.40;;;;;;;1.78;100.00;91918.72;4958907;28;20207;-76
2022/03/06 03:57:15;;;;;;;2.17;2.17;;;;;;;1.72;100.00;91915.53;4959029;28;20286;-76
2022/03/06 03:59:43;;;;;;;1.47;1.47;;;;;;;1.67;100.00;91918.97;4959131;28;20505;-76
2022/03/06 04:02:10;;;;;;;1.63;1.63;;;;;;;1.59;100.00;91910.81;4958773;28;20553;-76
2022/03/06 04:04:38;;;;;;;1.17;1.17;;;;;;;1.65;100.00;91898.25;4959536;28;20464;-76
2022/03/06 04:07:06;;;;;;;0.93;0.93;;;;;;;1.75;100.00;91911.31;4959118;28;20555;-76
2022/03/06 04:09:33;;;;;;;1.10;1.10;;;;;;;1.73;100.00;91905.56;4958869;28;20692;-76
2022/03/06 04:12:00;;;;;;;1.77;1.77;;;;;;;1.81;100.00;91907.88;4958958;28;20251;-77
2022/03/06 04:14:28;;;;;;;0.80;0.80;;;;;;;1.80;100.00;91921.19;4959362;28;20211;-77
2022/03/06 04:16:55;;;;;;;1.17;1.17;;;;;;;1.67;100.00;91906.50;4958400;28;20514;-77
2022/03/06 04:19:22;;;;;;;1.07;1.07;;;;;;;1.74;100.00;91916.34;4959851;28;20611;-77
2022/03/06 04:21:50;;;;;;;1.47;1.47;;;;;;;1.73;100.00;91917.19;4958924;28;20602;-77
2022/03/06 04:24:17;;;;;;;0.97;0.97;;;;;;;1.75;100.00;91915.50;4958340;28;20207;-77
2022/03/06 04:26:45;;;;;;;0.80;0.80;;;;;;;1.66;100.00;91918.97;4958708;28;20226;-77
2022/03/06 04:29:12;;;;;;;2.73;1.23;;;;;;;1.70;100.00;91915.56;4956526;28;20564;-78
2022/03/06 04:31:39;;;;;;;1.13;1.13;;;;;;;1.73;100.00;91917.19;4954363;28;20489;-78
2022/03/06 04:34:06;;;;;;;0.97;0.97;;;;;;;1.64;100.00;91919.00;4953802;28;20660;-78
2022/03/06 04:36:33;;;;;;;1.33;1.33;;;;;;;1.63;100.00;91914.09;4949632;28;20608;-78
2022/03/06 04:39:02;;;;;;;1.10;1.10;;;;;;;1.47;100.00;91900.28;4958397;28;20622;-78
2022/03/06 04:41:29;;;;;;;1.00;1.00;;;;;;;1.46;100.00;91919.41;4959196;28;20663;-79
2022/03/06 04:43:57;;;;;;;1.10;1.10;;;;;;;1.43;100.00;91919.44;4958401;28;20192;-78
2022/03/06 04:46:24;;;;;;;1.03;1.03;;;;;;;1.22;100.00;91898.31;4958898;28;20582;-79
2022/03/06 04:48:52;;;;;;;1.13;1.13;;;;;;;1.32;100.00;91908.06;4958273;28;20591;-78
2022/03/06 04:51:19;;;;;;;1.80;0.90;;;;;;;1.32;100.00;91923.81;4958192;28;20584;-77
2022/03/06 04:53:46;;;;;;;0.87;0.87;;;;;;;1.33;100.00;91930.44;4958112;28;20603;-77
2022/03/06 04:56:15;;;;;;;1.27;1.27;;;;;;;1.31;100.00;91928.81;4958329;28;20616;-77
2022/03/06 04:58:43;;;;;;;1.13;1.13;;;;;;;1.25;100.00;91924.78;4957761;28;20638;-77
2022/03/06 05:01:10;;;;;;;1.03;0.80;;;;;;;1.28;100.00;91927.22;4957937;28;20206;-76
2022/03/06 05:03:37;;;;;;;1.13;1.13;;;;;;;1.26;100.00;91931.41;4958758;28;20528;-77
2022/03/06 05:06:04;;;;;;;1.13;1.13;;;;;;;1.19;100.00;91915.75;4958423;28;20584;-77
2022/03/06 05:08:32;;;;;;;2.03;2.03;;;;;;;1.31;100.00;91933.78;4958494;28;20203;-77
2022/03/06 05:10:59;;;;;;;1.53;1.27;;;;;;;1.24;100.00;91928.13;4955568;28;20470;-77
2022/03/06 05:13:27;;;;;;;2.50;2.40;;;;;;;1.30;100.00;91934.66;4948633;28;20563;-79
2022/03/06 05:15:55;;;;;;;1.27;1.27;;;;;;;1.21;100.00;91933.16;4958447;28;20474;-74
2022/03/06 05:18:22;;;;;;;1.30;1.30;;;;;;;1.25;100.00;91927.28;4957738;28;20536;-74
2022/03/06 05:20:49;;;;;;;1.53;1.53;;;;;;;1.37;100.00;91936.16;4936765;28;20580;-74
2022/03/06 05:23:17;;;;;;;2.63;2.30;;;;;;;1.42;100.00;91939.38;4936100;28;20558;-74
2022/03/06 05:25:44;;;;;;;3.50;3.30;;;;;;;1.35;100.00;91942.84;4935267;28;20649;-74
2022/03/06 05:28:14;;;;;;;4.63;4.37;;;;;;;1.31;100.00;91943.75;4933268;28;20195;-74
2022/03/06 05:30:43;;;;;;;5.03;4.33;;;;;;;1.29;100.00;91945.47;4934736;28;20635;-74
2022/03/06 05:33:10;;;;;;;3.07;2.97;;;;;;;1.10;100.00;91918.44;4935620;28;20550;-74
2022/03/06 05:35:37;;;;;;;2.43;2.43;;;;;;;1.22;100.00;91934.81;4935795;28;20609;-73
2022/03/06 05:38:05;;;;;;;3.67;3.47;;;;;;;1.19;100.00;91945.63;4933271;28;20573;-74
2022/03/06 05:40:32;;;;;;;5.50;2.50;;;;;;;1.25;100.00;91947.16;4934709;28;20634;-74
2022/03/06 05:43:00;;;;;;;2.07;2.07;;;;;;;1.35;100.00;91951.16;4936949;28;20586;-74
2022/03/06 05:45:27;;;;;;;2.57;2.47;;;;;;;1.45;100.00;91946.81;4940044;28;20607;-73
2022/03/06 05:47:56;;;;;;;1.20;1.20;;;;;;;1.38;100.00;91951.06;4936350;28;20585;-73
2022/03/06 05:50:23;;;;;;;1.70;1.70;;;;;;;1.48;100.00;91964.97;4935422;28;20586;-74
2022/03/06 05:52:51;;;;;;;1.90;1.57;;;;;;;1.49;100.00;91961.63;4934678;28;20594;-74
2022/03/06 05:55:19;;;;;;;2.07;2.07;;;;;;;1.54;100.00;91959.88;4934832;28;20592;-74
2022/03/06 05:57:46;;;;;;;2.73;2.63;;;;;;;1.43;100.00;91953.47;4935968;28;20502;-74
2022/03/06 06:00:17;;;;;;;5.33;5.03;;;;;;;1.49;100.00;91951.69;4936811;28;20227;-74
2022/03/06 06:02:45;;;;;;;3.23;2.97;;;;;;;1.50;100.00;91958.31;4938109;28;20486;-74
2022/03/06 06:05:15;;;;;;;5.27;4.53;;;;;;;1.35;100.00;91953.63;4935087;28;20596;-77
2022/03/06 06:07:42;;;;;;;4.40;4.20;;;;;;;1.29;100.00;91933.03;4934512;28;20560;-77
2022/03/06 06:10:11;;;;;;;2.47;2.37;;;;;;;1.39;100.00;91950.22;4937588;28;20591;-73
2022/03/06 06:12:38;;;;;;;2.00;2.00;;;;;;;1.41;100.00;91941.03;4934443;28;20240;-73
2022/03/06 06:15:06;;;;;;;3.10;2.80;;;;;;;1.48;100.00;91964.16;4934731;28;20696;-74
2022/03/06 06:17:33;;;;;;;4.10;3.80;;;;;;;1.49;100.00;91965.78;4934657;28;20568;-74
2022/03/06 06:20:01;;;;;;;3.20;3.10;;;;;;;1.43;100.00;91966.72;4935454;28;20591;-75
2022/03/06 06:22:31;;;;;;;3.00;2.90;;;;;;;1.39;100.00;91964.34;4935476;28;20597;-74
2022/03/06 06:24:58;;;;;;;3.90;3.70;;;;;;;1.44;100.00;91965.88;4935613;28;20593;-75
2022/03/06 06:27:26;;;;;;;2.63;2.47;;;;;;;1.47;100.00;91970.78;4933332;28;20585;-75
2022/03/06 06:29:54;;;;;;;2.17;2.17;;;;;;;1.50;100.00;91968.25;4931986;28;20690;-76
2022/03/06 06:32:21;;;;;;;4.03;2.87;;;;;;;1.47;100.00;91955.03;4933625;28;20560;-76
2022/03/06 06:34:49;;;;;;;3.03;2.83;;;;;;;1.55;100.00;91965.66;4934778;28;20526;-76
2022/03/06 06:37:16;;;;;;;2.93;2.83;;;;;;;1.51;100.00;91957.47;4933480;28;20490;-76
2022/03/06 06:39:45;;;;;;;1.70;1.67;;;;;;;1.61;100.00;91970.53;4933333;28;20503;-74
2022/03/06 06:42:12;;;;;;;2.83;2.73;;;;;;;1.61;100.00;91968.03;4935197;28;20631;-73
2022/03/06 06:44:40;;;;;;;2.60;2.50;;;;;;;1.62;100.00;91964.72;4937269;28;20662;-75
2022/03/06 06:47:07;;;;;;;2.23;2.13;;;;;;;1.64;100.00;91967.97;4935247;28;20581;-75
2022/03/06 06:49:35;;;;;;;2.97;2.87;;;;;;;1.65;100.00;91977.09;4933271;28;20239;-74
2022/03/06 06:52:02;;;;;;;3.50;3.40;;;;;;;1.66;100.00;91974.56;4932462;28;20627;-74
2022/03/06 06:54:29;;;;;;;3.47;3.27;;;;;;;1.63;100.00;91968.84;4932394;28;20551;-76
2022/03/06 06:56:58;;;;;;;3.23;3.10;;;;;;;1.63;100.00;91969.63;4935076;28;20717;-76
2022/03/06 06:59:25;;;;;;;1.50;1.50;;;;;;;1.54;100.00;91966.53;4937977;28;20252;-76
2022/03/06 07:01:52;;;;;;;2.10;1.90;;;;;;;1.56;100.00;91975.59;4935368;28;20616;-77
2022/03/06 07:04:19;;;;;;;2.03;1.93;;;;;;;1.67;100.00;91983.69;4936804;28;20587;-78
2022/03/06 07:06:46;;;;;;;1.80;1.80;;;;;;;1.41;100.00;91943.53;4936515;28;20222;-77
2022/03/06 07:09:13;;;;;;;2.63;2.33;;;;;;;1.61;100.00;91975.50;4938877;28;20230;-77
2022/03/06 07:11:41;;;;;;;2.83;2.20;;;;;;;1.48;100.00;91939.25;4937487;28;20620;-78
2022/03/06 07:14:09;;;;;;;2.37;2.10;;;;;;;1.72;100.00;91973.63;4935358;28;20514;-77
2022/03/06 07:16:36;;;;;;;1.87;1.87;;;;;;;1.69;100.00;91965.41;4937379;28;20478;-76
2022/03/06 07:19:04;;;;;;;3.07;2.97;;;;;;;1.59;100.00;91940.69;4937630;28;20497;-76
2022/03/06 07:21:31;;;;;;;2.37;2.27;;;;;;;1.83;100.00;91980.88;4928690;28;20619;-76
2022/03/06 07:23:58;;;;;;;2.33;2.23;;;;;;;1.71;100.00;91969.50;4928027;28;20670;-77
2022/03/06 07:26:25;;;;;;;1.43;1.43;;;;;;;1.86;100.00;91991.59;4936613;28;20279;-76
2022/03/06 07:28:53;;;;;;;1.57;1.57;;;;;;;1.94;100.00;91988.94;4937883;28;20679;-78
2022/03/06 07:31:21;;;;;;;1.87;1.87;;;;;;;2.00;100.00;91988.81;4937509;28;20569;-76
2022/03/06 07:33:48;;;;;;;0.87;0.87;;;;;;;2.05;100.00;91990.34;4935262;28;20203;-76
2022/03/06 07:36:15;;;;;;;1.40;1.40;;;;;;;2.14;100.00;91991.03;4938896;28;20565;-76
2022/03/06 07:38:43;;;;;;;1.77;1.67;;;;;;;2.22;100.00;91989.16;4937495;28;20222;-76
2022/03/06 07:41:11;;;;;;;1.13;1.10;;;;;;;2.30;100.00;91995.66;4938517;28;20201;-77
2022/03/06 07:43:38;;;;;;;1.77;1.77;;;;;;;2.29;100.00;91989.00;4938312;28;20670;-76
2022/03/06 07:46:05;;;;;;;2.00;1.90;;;;;;;2.31;99.00;91984.00;4938059;28;20585;-75
2022/03/06 07:48:33;;;;;;;2.57;2.37;;;;;;;2.39;99.89;91977.97;4937252;28;20509;-77
2022/03/06 07:51:01;;;;;;;1.77;1.77;;;;;;;2.29;98.99;91971.56;4935788;28;20622;-76
2022/03/06 07:53:28;;;;;;;1.20;1.10;;;;;;;2.39;98.90;91972.19;4936027;28;20337;-76
2022/03/06 07:55:55;;;;;;;1.17;1.17;;;;;;;2.37;99.67;91957.25;4938059;28;20541;-74
2022/03/06 07:58:22;;;;;;;2.37;2.27;;;;;;;2.32;99.75;91961.53;4937900;28;20545;-75
2022/03/06 08:00:50;;;;;;;2.20;2.03;;;;;;;2.43;99.59;91972.06;4937521;28;20200;-74
2022/03/06 08:03:17;;;;;;;3.57;3.47;;;;;;;2.46;99.23;91969.53;4935288;28;20248;-74
2022/03/06 08:05:46;;;;;;;1.63;1.63;;;;;;;2.47;99.77;91975.31;4936425;28;20205;-75
2022/03/06 08:08:13;;;;;;;3.07;2.97;;;;;;;2.44;99.59;91990.34;4938418;28;20566;-73
2022/03/06 08:10:40;;;;;;;3.63;3.47;;;;;;;2.26;99.88;91986.56;4936558;28;20303;-73
2022/03/06 08:13:07;;;;;;;2.10;2.00;;;;;;;2.14;100.00;91986.03;4934504;28;20260;-74
2022/03/06 08:15:36;;;;;;;2.17;2.17;;;;;;;2.16;100.00;91981.84;4935369;28;20710;-74
2022/03/06 08:18:03;;;;;;;1.93;1.83;;;;;;;2.19;100.00;91980.09;4935751;28;20597;-74
2022/03/06 08:20:30;;;;;;;2.27;2.17;;;;;;;2.30;99.77;91993.16;4939316;28;20604;-77
2022/03/06 08:23:00;;;;;;;2.33;2.17;;;;;;;2.17;100.00;91993.44;4926425;28;20683;-75
2022/03/06 08:25:28;;;;;;;1.30;1.30;;;;;;;2.20;100.00;91998.38;4926624;28;20200;-75
2022/03/06 08:27:55;;;;;;;3.23;2.90;;;;;;;2.20;100.00;91996.66;4922519;28;20335;-75
2022/03/06 08:30:23;;;;;;;3.90;3.60;;;;;;;2.13;99.73;91966.97;4923222;28;20624;-76
2022/03/06 08:32:50;;;;;;;2.17;2.17;;;;;;;2.32;99.15;91988.94;4923476;28;20598;-76
2022/03/06 08:35:17;;;;;;;3.13;3.03;;;;;;;2.24;99.19;91975.03;4926688;28;20597;-76
2022/03/06 08:37:44;;;;;;;2.23;2.03;;;;;;;2.26;100.00;91985.75;4924123;28;20482;-76
2022/03/06 08:40:13;;;;;;;1.83;1.83;;;;;;;2.30;99.78;91990.66;4925052;28;20581;-76
2022/03/06 08:42:40;;;;;;;2.70;1.90;;;;;;;2.10;99.06;91975.31;4923750;28;20394;-76
2022/03/06 08:45:08;;;;;;;2.10;2.00;;;;;;;2.06;99.58;91984.53;4940385;28;20213;-76
2022/03/06 08:47:35;;;;;;;2.47;2.37;;;;;;;1.90;100.00;91962.47;4935118;28;20720;-76
2022/03/06 08:50:02;;;;;;;1.80;1.80;;;;;;;1.97;100.00;91981.44;4935669;28;20622;-77
2022/03/06 08:52:29;;;;;;;1.67;1.67;;;;;;;1.99;99.88;91979.69;4933608;28;20668;-76
2022/03/06 08:54:56;;;;;;;3.07;2.97;;;;;;;1.97;100.00;91979.72;4936525;28;20639;-76
2022/03/06 08:57:25;;;;;;;4.07;3.67;;;;;;;1.88;100.00;91964.16;4936103;28;20560;-76
2022/03/06 08:59:53;;;;;;;3.43;3.20;;;;;;;1.85;100.00;91959.25;4935448;28;20716;-76
2022/03/06 09:02:21;;;;;;;6.80;3.27;;;;;;;1.80;100.00;91971.00;4931971;28;20498;-75
2022/03/06 09:04:49;;;;;;;1.53;1.53;;;;;;;1.84;100.00;91983.34;4928819;28;20574;-76
2022/03/06 09:07:16;;;;;;;1.13;1.13;;;;;;;1.87;100.00;91982.44;4934729;28;20573;-76
2022/03/06 09:09:43;;;;;;;3.07;2.97;;;;;;;1.74;100.00;91979.41;4935759;28;20539;-77
2022/03/06 09:12:11;;;;;;;1.50;1.50;;;;;;;1.79;100.00;91969.34;4932386;28;20659;-73
2022/03/06 09:14:39;;;;;;;3.93;3.73;;;;;;;2.03;100.00;91986.25;4935655;28;20691;-73
2022/03/06 09:17:08;;;;;;;3.97;3.77;;;;;;;2.14;100.00;91991.03;4937800;28;20542;-75
2022/03/06 09:19:36;;;;;;;3.97;3.67;;;;;;;2.27;99.56;91993.19;4942802;28;20234;-75
2022/03/06 09:22:03;;;;;;;2.23;2.13;;;;;;;2.30;98.73;91989.84;4934647;28;20593;-76
2022/03/06 09:24:31;;;;;;;2.60;2.50;;;;;;;2.17;98.91;91951.91;4931982;28;20582;-76
2022/03/06 09:26:58;;;;;;;3.67;3.37;;;;;;;2.41;98.41;91970.47;4934719;28;20572;-76
2022/03/06 09:29:26;;;;;;;3.23;3.13;;;;;;;2.50;98.06;91981.06;4935380;28;20578;-75
2022/03/06 09:31:54;;;;;;;2.90;2.70;;;;;;;2.49;97.90;91993.53;4937519;28;20614;-76
2022/03/06 09:34:21;;;;;;;4.90;4.63;;;;;;;2.39;98.65;91977.16;4938909;28;20575;-76
2022/03/06 09:36:49;;;;;;;3.47;2.40;;;;;;;2.39;98.92;91987.94;4933645;28;20598;-76
2022/03/06 09:39:16;;;;;;;2.70;2.50;;;;;;;2.52;99.00;91988.50;4935164;28;20624;-77
2022/03/06 09:41:44;;;;;;;2.93;2.83;;;;;;;2.62;98.55;91977.47;4934722;28;20601;-77
2022/03/06 09:44:32;;;;;;;2.00;1.90;;;;;;;2.80;97.91;91986.19;4937775;28;20479;-76
2022/03/06 09:47:00;;;;;;;1.73;1.73;;;;;;;2.82;97.23;91990.25;4935479;28;20598;-77
2022/03/06 09:49:28;;;;;;;1.97;1.97;;;;;;;2.88;96.37;91994.28;4935829;28;20513;-76
2022/03/06 09:51:56;;;;;;;3.67;3.47;;;;;;;2.63;96.97;91973.28;4935930;28;20608;-77
2022/03/06 09:54:23;;;;;;;3.07;2.90;;;;;;;2.76;96.92;91995.38;4935697;28;20622;-76
2022/03/06 09:56:51;;;;;;;4.50;4.30;;;;;;;2.76;97.25;91987.91;4938547;28;20504;-76
2022/03/06 09:59:18;;;;;;;3.70;2.97;;;;;;;2.66;96.25;91976.53;4935093;28;20582;-77
2022/03/06 10:01:45;;;;;;;3.40;3.20;;;;;;;2.72;96.27;91998.00;4935556;28;20227;-77
2022/03/06 10:04:25;;;;;;;3.20;3.10;;;;;;;2.90;96.45;91995.91;4935619;28;20570;-77
2022/03/06 10:07:00;;;;;;;6.27;4.57;;;;;;;3.07;94.71;91993.00;4932849;28;20507;-76
2022/03/06 10:09:28;;;;;;;1.87;1.87;;;;;;;3.05;94.09;91992.19;4934992;28;20513;-76
2022/03/06 10:11:55;;;;;;;6.93;3.47;;;;;;;3.06;93.67;91981.38;4937185;28;20533;-76
2022/03/06 10:14:37;;;;;;;2.53;2.43;;;;;;;3.16;92.78;91991.91;4936797;28;20604;-76
2022/03/06 10:17:13;;;;;;;3.63;3.43;;;;;;;3.27;92.32;92004.94;4936199;28;20283;-76
2022/03/06 10:20:00;;;;;;;4.43;2.50;;;;;;;3.37;92.61;91986.41;4938275;28;20676;-76
2022/03/06 10:22:30;;;;;;;1.97;1.93;;;;;;;3.47;92.11;91995.28;4933462;28;20201;-76
2022/03/06 10:24:59;;;;;;;3.23;3.13;;;;;;;3.55;91.33;91985.09;4934533;28;20264;-75
2022/03/06 10:27:53;;;;;;;4.07;2.30;;;;;;;3.59;90.60;91999.13;4935430;28;20220;-76
2022/03/06 10:30:28;;;;;;;2.40;2.30;;;;;;;3.68;90.40;91987.22;4937121;28;20566;-75
2022/03/06 10:32:56;;;;;;;2.77;2.67;;;;;;;3.55;89.93;91965.91;4928835;28;20496;-76
2022/03/06 10:35:33;;;;;;;6.90;3.77;;;;;;;3.81;89.89;91971.91;4937055;28;20661;-76
2022/03/06 10:38:00;;;;;;;1.47;1.47;;;;;;;3.97;88.70;91980.59;4935353;28;20477;-76
2022/03/06 10:40:35;;;;;;;2.90;2.70;;;;;;;3.97;87.19;91971.41;4937234;28;20580;-75
2022/03/06 10:43:02;;;;;;;3.00;2.80;;;;;;;4.05;87.14;91973.72;4933150;28;20617;-76
2022/03/06 10:45:29;;;;;;;4.40;3.97;;;;;;;3.98;87.16;91954.75;4934380;28;20247;-76
2022/03/06 10:47:57;;;;;;;2.43;2.33;;;;;;;4.14;87.48;91966.75;4933142;28;20506;-77
2022/03/06 10:50:28;;;;;;;5.83;5.53;;;;;;;4.28;88.30;91953.84;4934899;28;20664;-77
2022/03/06 10:52:55;;;;;;;3.40;3.10;;;;;;;4.36;89.39;91948.63;4935619;28;20663;-78
2022/03/06 10:55:35;;;;;;;1.57;1.57;;;;;;;4.42;87.39;91956.75;4932505;28;20574;-78
2022/03/06 10:58:04;;;;;;;1.63;1.63;;;;;;;4.33;87.29;91954.53;4930875;28;20688;-78
2022/03/06 11:00:33;;;;;;;2.10;1.93;;;;;;;4.32;87.58;91950.41;4928186;28;20256;-78
2022/03/06 11:03:04;;;;;;;1.83;1.73;;;;;;;4.16;85.88;91952.53;4937799;28;20508;-80
2022/03/06 11:05:34;;;;;;;3.20;2.13;;;;;;;4.03;86.26;91961.25;4934734;28;20540;-78
2022/03/06 11:08:02;;;;;;;2.77;2.60;;;;;;;3.63;87.54;91929.09;4932832;28;20577;-77
2022/03/06 11:10:30;;;;;;;2.03;2.03;;;;;;;3.75;87.94;91942.91;4933716;28;20609;-77
2022/03/06 11:12:58;;;;;;;6.37;4.23;;;;;;;3.85;86.69;91954.28;4934492;28;20514;-76
2022/03/06 11:15:28;;;;;;;2.73;2.63;;;;;;;3.77;87.26;91946.19;4931206;28;20538;-77
2022/03/06 11:17:57;;;;;;;2.60;2.50;;;;;;;3.50;88.41;91916.97;4931615;28;20657;-76
2022/03/06 11:20:24;;;;;;;2.53;2.27;;;;;;;3.24;85.82;91955.94;4935675;28;20627;-78
2022/03/06 11:23:00;;;;;;;2.60;2.43;;;;;;;3.02;87.21;91934.09;4932178;28;20589;-77
2022/03/06 11:25:30;;;;;;;2.73;2.63;;;;;;;2.86;88.81;91907.03;4929158;28;20560;-79
2022/03/06 11:28:16;;;;;;;6.80;3.07;;;;;;;2.68;89.80;91919.16;4926338;28;20593;-76
2022/03/06 11:30:43;;;;;;;3.27;2.97;;;;;;;2.54;90.93;91909.50;4922464;28;20206;-76
2022/03/06 11:33:12;;;;;;;4.27;4.03;;;;;;;2.21;90.68;91881.22;4920378;28;20634;-76
2022/03/06 11:35:42;;;;;;;3.27;3.17;;;;;;;2.38;90.90;91920.69;4923156;28;20591;-76
2022/03/06 11:38:13;;;;;;;2.80;2.70;;;;;;;2.29;91.35;91905.97;4922845;28;20693;-75
2022/03/06 11:40:48;;;;;;;2.50;2.40;;;;;;;2.17;92.19;91909.56;4931455;28;20529;-75